Time;durP1;ratioP1;P1;durP2;ratioP2;P2;SDS_P1;SDS_P2;PMS_P1;PMS_P2;Temp;Humidity;BMP_temperature;BMP_pressure;BME280_temperature;BME280_humidity;BME280_pressure;Samples;Min_cycle;Max_cycle;Signal;HPM_P1;HPM_P2
2024/03/07 00:00:21;;;;;;;1.90;0.82;;;;;;;;;;4985492;28;88316;-51
2024/03/07 00:02:48;;;;;;;2.17;1.20;;;;;;;;;;4987407;28;87032;-55
2024/03/07 00:05:13;;;;;;;1.27;0.82;;;;;;;;;;4986654;28;86852;-52
2024/03/07 00:07:39;;;;;;;1.43;0.80;;;;;;;;;;4985791;28;88516;-49
2024/03/07 00:10:06;;;;;;;2.17;0.95;;;;;;;;;;4987444;28;86957;-54
2024/03/07 00:12:32;;;;;;;1.20;0.80;;;;;;;;;;4989665;28;86888;-51
2024/03/07 00:14:58;;;;;;;2.47;1.00;;;;;;;;;;4988105;28;86866;-52
2024/03/07 00:17:23;;;;;;;1.10;0.80;;;;;;;;;;4988162;28;87063;-53
2024/03/07 00:19:48;;;;;;;1.60;0.93;;;;;;;;;;4988865;28;87171;-50
2024/03/07 00:22:14;;;;;;;1.37;0.80;;;;;;;;;;4988876;28;87733;-49
2024/03/07 00:24:40;;;;;;;1.58;0.73;;;;;;;;;;4989204;28;86309;-52
2024/03/07 00:27:05;;;;;;;1.50;1.00;;;;;;;;;;4989316;28;86707;-53
2024/03/07 00:29:30;;;;;;;2.27;0.90;;;;;;;;;;4989213;28;88661;-52
2024/03/07 00:31:55;;;;;;;1.07;0.97;;;;;;;;;;4985396;28;88522;-53
2024/03/07 00:34:23;;;;;;;1.97;0.70;;;;;;;;;;4989885;28;87889;-50
2024/03/07 00:36:48;;;;;;;1.15;0.93;;;;;;;;;;4986032;28;86900;-53
2024/03/07 00:39:13;;;;;;;2.67;0.98;;;;;;;;;;4986095;28;86902;-51
2024/03/07 00:41:39;;;;;;;1.53;0.90;;;;;;;;;;4986497;28;87176;-54
2024/03/07 00:44:04;;;;;;;1.70;1.00;;;;;;;;;;4987014;28;86857;-50
2024/03/07 00:46:30;;;;;;;2.83;1.08;;;;;;;;;;4988120;28;87277;-52
2024/03/07 00:48:55;;;;;;;2.70;0.93;;;;;;;;;;4987462;28;87969;-53
2024/03/07 00:51:20;;;;;;;2.53;1.20;;;;;;;;;;4986859;28;86900;-49
2024/03/07 00:53:47;;;;;;;1.60;1.00;;;;;;;;;;4990701;28;87235;-51
2024/03/07 00:56:12;;;;;;;1.92;0.93;;;;;;;;;;4989531;28;87791;-54
2024/03/07 00:58:37;;;;;;;1.00;0.70;;;;;;;;;;4988440;28;88067;-50
2024/03/07 01:01:03;;;;;;;0.77;0.68;;;;;;;;;;4987665;28;87803;-49
2024/03/07 01:03:28;;;;;;;1.35;0.80;;;;;;;;;;4988453;28;86780;-53
2024/03/07 01:05:53;;;;;;;2.07;0.90;;;;;;;;;;4987832;28;87002;-50
2024/03/07 01:08:19;;;;;;;1.00;0.80;;;;;;;;;;4988385;28;87367;-51
2024/03/07 01:10:44;;;;;;;1.90;0.80;;;;;;;;;;4989152;28;87054;-52
2024/03/07 01:13:18;;;;;;;1.13;0.80;;;;;;;;;;4988408;28;87265;-53
2024/03/07 01:15:44;;;;;;;1.15;0.80;;;;;;;;;;4989549;28;87451;-54
2024/03/07 01:18:09;;;;;;;1.43;0.83;;;;;;;;;;4985790;28;86857;-50
2024/03/07 01:20:35;;;;;;;1.47;0.80;;;;;;;;;;4984962;28;87743;-54
2024/03/07 01:23:00;;;;;;;3.65;0.77;;;;;;;;;;4985811;28;87017;-49
2024/03/07 01:25:26;;;;;;;1.50;0.80;;;;;;;;;;4984567;28;91237;-50
2024/03/07 01:27:52;;;;;;;2.30;1.02;;;;;;;;;;4985276;28;87352;-52
2024/03/07 01:30:17;;;;;;;1.52;1.05;;;;;;;;;;4984756;28;88169;-53
2024/03/07 01:32:43;;;;;;;2.30;0.87;;;;;;;;;;4984746;28;87074;-51
2024/03/07 01:35:08;;;;;;;1.20;0.87;;;;;;;;;;4984646;28;87644;-52
2024/03/07 01:37:33;;;;;;;1.87;0.80;;;;;;;;;;4992923;28;86814;-52
2024/03/07 01:39:59;;;;;;;1.30;1.00;;;;;;;;;;4986298;28;88058;-52
2024/03/07 01:42:25;;;;;;;1.37;0.90;;;;;;;;;;4986485;28;86954;-53
2024/03/07 01:44:50;;;;;;;1.30;0.73;;;;;;;;;;4987543;28;87956;-48
2024/03/07 01:47:15;;;;;;;1.40;0.77;;;;;;;;;;4988539;28;86717;-52
2024/03/07 01:49:41;;;;;;;2.17;1.03;;;;;;;;;;4987540;28;86986;-53
2024/03/07 01:52:07;;;;;;;1.10;0.67;;;;;;;;;;4986565;28;89960;-52
2024/03/07 01:54:32;;;;;;;1.13;0.77;;;;;;;;;;4988831;28;87608;-53
2024/03/07 01:56:58;;;;;;;1.50;0.70;;;;;;;;;;4990182;28;86767;-52
2024/03/07 01:59:24;;;;;;;1.75;0.93;;;;;;;;;;4992237;28;86811;-54
2024/03/07 02:01:49;;;;;;;1.73;1.10;;;;;;;;;;4989871;28;86201;-53
2024/03/07 02:04:14;;;;;;;1.73;1.07;;;;;;;;;;4989084;28;86832;-53
2024/03/07 02:06:40;;;;;;;1.67;0.87;;;;;;;;;;4988614;28;87064;-52
2024/03/07 02:09:06;;;;;;;2.17;1.10;;;;;;;;;;4988757;28;87570;-53
2024/03/07 02:11:32;;;;;;;1.00;0.82;;;;;;;;;;4986266;28;88083;-50
2024/03/07 02:13:57;;;;;;;1.87;1.20;;;;;;;;;;4985483;28;87447;-50
2024/03/07 02:16:22;;;;;;;1.23;0.87;;;;;;;;;;4985490;28;86811;-50
2024/03/07 02:18:48;;;;;;;1.23;0.70;;;;;;;;;;4985985;28;86787;-51
2024/03/07 02:21:13;;;;;;;1.15;0.73;;;;;;;;;;4987700;28;86941;-51
2024/03/07 02:23:39;;;;;;;1.17;0.97;;;;;;;;;;4984075;28;86857;-53
2024/03/07 02:26:04;;;;;;;1.67;1.10;;;;;;;;;;4986650;28;86621;-52
2024/03/07 02:28:29;;;;;;;1.40;0.87;;;;;;;;;;4986116;28;86922;-51
2024/03/07 02:30:55;;;;;;;1.80;1.07;;;;;;;;;;4984446;28;87003;-52
2024/03/07 02:33:21;;;;;;;1.03;0.80;;;;;;;;;;4984174;28;88039;-51
2024/03/07 02:35:46;;;;;;;1.35;0.90;;;;;;;;;;4983545;28;86973;-52
2024/03/07 02:38:11;;;;;;;1.83;0.87;;;;;;;;;;4985056;28;87081;-53
2024/03/07 02:40:37;;;;;;;1.80;0.90;;;;;;;;;;4982510;28;90601;-54
2024/03/07 02:43:04;;;;;;;1.23;0.80;;;;;;;;;;4985032;28;86767;-53
2024/03/07 02:45:30;;;;;;;0.97;0.77;;;;;;;;;;4984140;28;86946;-52
2024/03/07 02:47:55;;;;;;;0.93;0.83;;;;;;;;;;4984195;28;86878;-52
2024/03/07 02:50:21;;;;;;;1.60;0.87;;;;;;;;;;4984044;28;86946;-49
2024/03/07 02:52:47;;;;;;;1.30;0.75;;;;;;;;;;4983811;28;87369;-51
2024/03/07 02:55:13;;;;;;;1.60;0.70;;;;;;;;;;4984363;28;86823;-51
2024/03/07 02:57:38;;;;;;;1.63;0.90;;;;;;;;;;4982962;28;88799;-54
2024/03/07 03:00:13;;;;;;;1.37;1.00;;;;;;;;;;4984627;28;87438;-51
2024/03/07 03:02:38;;;;;;;1.40;1.00;;;;;;;;;;4989389;28;87915;-49
2024/03/07 03:05:06;;;;;;;1.47;0.93;;;;;;;;;;4984742;28;87625;-53
2024/03/07 03:07:31;;;;;;;1.80;0.65;;;;;;;;;;4982913;28;86876;-53
2024/03/07 03:09:56;;;;;;;1.40;1.10;;;;;;;;;;4982361;28;87114;-54
2024/03/07 03:12:22;;;;;;;1.60;0.80;;;;;;;;;;4982473;28;87472;-51
2024/03/07 03:14:48;;;;;;;1.85;0.80;;;;;;;;;;4985553;28;86606;-54
2024/03/07 03:17:14;;;;;;;1.02;0.93;;;;;;;;;;4983576;28;86736;-53
2024/03/07 03:19:39;;;;;;;1.10;0.90;;;;;;;;;;4984913;28;87273;-53
2024/03/07 03:22:05;;;;;;;1.53;1.10;;;;;;;;;;4983243;28;87782;-51
2024/03/07 03:24:30;;;;;;;2.43;1.30;;;;;;;;;;4986851;28;88009;-50
2024/03/07 03:26:56;;;;;;;1.20;0.90;;;;;;;;;;4984463;28;86902;-53
2024/03/07 03:29:21;;;;;;;1.07;0.90;;;;;;;;;;4985534;28;87009;-51
2024/03/07 03:31:46;;;;;;;1.50;0.90;;;;;;;;;;4983943;28;89321;-53
2024/03/07 03:34:11;;;;;;;1.83;1.23;;;;;;;;;;4987036;28;88662;-52
2024/03/07 03:36:36;;;;;;;1.80;1.00;;;;;;;;;;4987147;28;86776;-53
2024/03/07 03:39:02;;;;;;;1.97;0.90;;;;;;;;;;4987474;28;86114;-53
2024/03/07 03:41:27;;;;;;;1.30;0.73;;;;;;;;;;4986595;28;87659;-50
2024/03/07 03:43:53;;;;;;;1.43;1.00;;;;;;;;;;4987060;28;87475;-49
2024/03/07 03:46:18;;;;;;;1.50;0.83;;;;;;;;;;4989076;28;88667;-51
2024/03/07 03:48:43;;;;;;;1.40;0.90;;;;;;;;;;4986265;28;88328;-49
2024/03/07 03:51:09;;;;;;;1.87;1.00;;;;;;;;;;4988254;28;86888;-52
2024/03/07 03:53:35;;;;;;;1.73;1.08;;;;;;;;;;4988080;28;86742;-53
2024/03/07 03:56:00;;;;;;;1.10;0.80;;;;;;;;;;4994624;28;86861;-53
2024/03/07 03:58:25;;;;;;;1.20;0.90;;;;;;;;;;4992048;28;87465;-52
2024/03/07 04:00:51;;;;;;;1.93;0.80;;;;;;;;;;4991712;28;87027;-52
2024/03/07 04:03:16;;;;;;;1.90;0.80;;;;;;;;;;4989812;28;89024;-50
2024/03/07 04:05:41;;;;;;;1.90;0.93;;;;;;;;;;4989289;28;87478;-50
2024/03/07 04:08:07;;;;;;;2.17;1.20;;;;;;;;;;4992784;28;86747;-52
2024/03/07 04:10:32;;;;;;;0.90;0.80;;;;;;;;;;4988520;28;88391;-51
2024/03/07 04:12:58;;;;;;;1.97;0.80;;;;;;;;;;4989481;28;86878;-53
2024/03/07 04:15:26;;;;;;;1.48;1.00;;;;;;;;;;4989763;28;87100;-52
2024/03/07 04:17:52;;;;;;;1.40;0.82;;;;;;;;;;4990240;28;86579;-55
2024/03/07 04:20:17;;;;;;;1.40;1.00;;;;;;;;;;4987150;28;86966;-51
2024/03/07 04:22:42;;;;;;;1.80;1.00;;;;;;;;;;4990069;28;87293;-49
2024/03/07 04:25:08;;;;;;;2.47;1.10;;;;;;;;;;4990178;28;88170;-52
2024/03/07 04:27:36;;;;;;;1.83;0.80;;;;;;;;;;4990237;28;86796;-52
2024/03/07 04:30:03;;;;;;;1.20;0.80;;;;;;;;;;4991558;28;87112;-54
2024/03/07 04:32:28;;;;;;;1.70;1.10;;;;;;;;;;4989454;28;86773;-54
2024/03/07 04:34:54;;;;;;;2.80;1.20;;;;;;;;;;4989565;28;87578;-51
2024/03/07 04:37:19;;;;;;;2.03;0.97;;;;;;;;;;4989938;28;87493;-54
2024/03/07 04:39:45;;;;;;;1.90;1.00;;;;;;;;;;4990618;28;86834;-53
2024/03/07 04:42:10;;;;;;;2.08;1.02;;;;;;;;;;4989172;28;86883;-52
2024/03/07 04:44:36;;;;;;;1.20;0.87;;;;;;;;;;4988039;28;86932;-52
2024/03/07 04:47:02;;;;;;;2.77;1.30;;;;;;;;;;4988597;28;87647;-51
2024/03/07 04:49:28;;;;;;;1.80;0.80;;;;;;;;;;4988154;28;86626;-50
2024/03/07 04:51:54;;;;;;;1.40;1.05;;;;;;;;;;4991134;28;87103;-53
2024/03/07 04:54:20;;;;;;;2.80;1.10;;;;;;;;;;4990231;28;86856;-50
2024/03/07 04:56:46;;;;;;;1.00;0.63;;;;;;;;;;4992036;28;87483;-50
2024/03/07 04:59:11;;;;;;;2.10;0.90;;;;;;;;;;4989625;28;87893;-50
2024/03/07 05:01:37;;;;;;;1.42;0.80;;;;;;;;;;4989779;28;86920;-50
2024/03/07 05:04:03;;;;;;;1.85;1.08;;;;;;;;;;4991038;28;86733;-49
2024/03/07 05:06:28;;;;;;;1.60;0.90;;;;;;;;;;4987397;28;86961;-51
2024/03/07 05:08:54;;;;;;;1.60;0.90;;;;;;;;;;4987892;28;87384;-50
2024/03/07 05:11:19;;;;;;;1.70;1.03;;;;;;;;;;4989690;28;87001;-53
2024/03/07 05:13:44;;;;;;;1.60;1.00;;;;;;;;;;4986318;28;87199;-53
2024/03/07 05:16:09;;;;;;;2.00;1.10;;;;;;;;;;4987271;28;88336;-50
2024/03/07 05:18:35;;;;;;;1.10;0.90;;;;;;;;;;4988432;28;87121;-54
2024/03/07 05:21:35;;;;;;;2.10;1.03;;;;;;;;;;4986720;28;87134;-49
2024/03/07 05:23:45;;;;;;;2.80;0.90;;;;;;;;;;4984091;28;89335;-53
2024/03/07 05:26:10;;;;;;;2.03;0.80;;;;;;;;;;4985982;28;86886;-54
2024/03/07 05:28:36;;;;;;;1.70;1.13;;;;;;;;;;4986154;28;87234;-51
2024/03/07 05:31:03;;;;;;;1.55;1.00;;;;;;;;;;4984941;28;87619;-52
2024/03/07 05:33:29;;;;;;;1.73;1.10;;;;;;;;;;4988375;28;86930;-52
2024/03/07 05:36:02;;;;;;;1.00;0.73;;;;;;;;;;4986378;28;86839;-49
2024/03/07 05:38:28;;;;;;;1.52;0.85;;;;;;;;;;4985535;28;86975;-52
2024/03/07 05:40:53;;;;;;;2.80;1.15;;;;;;;;;;4987830;28;86021;-53
2024/03/07 05:43:19;;;;;;;1.60;1.10;;;;;;;;;;4985684;28;87492;-49
2024/03/07 05:45:44;;;;;;;1.30;0.93;;;;;;;;;;4986667;28;87008;-51
2024/03/07 05:48:14;;;;;;;2.40;1.43;;;;;;;;;;4986223;28;87820;-52
2024/03/07 05:50:39;;;;;;;1.50;1.20;;;;;;;;;;4988731;28;86648;-50
2024/03/07 05:53:05;;;;;;;3.30;1.30;;;;;;;;;;4987454;28;87189;-51
2024/03/07 05:55:33;;;;;;;1.90;1.02;;;;;;;;;;4988032;28;87348;-51
2024/03/07 05:57:58;;;;;;;2.45;1.20;;;;;;;;;;4983907;28;86672;-49
2024/03/07 06:00:26;;;;;;;2.00;0.90;;;;;;;;;;4984419;28;86961;-52
2024/03/07 06:02:53;;;;;;;1.60;0.97;;;;;;;;;;4983295;28;86999;-56
2024/03/07 06:05:19;;;;;;;7.50;2.80;;;;;;;;;;4985983;28;86360;-45
2024/03/07 06:07:45;;;;;;;2.35;1.13;;;;;;;;;;4986184;28;86851;-43
2024/03/07 06:10:11;;;;;;;3.05;1.00;;;;;;;;;;4985602;28;87682;-43
2024/03/07 06:12:37;;;;;;;2.23;1.30;;;;;;;;;;4985511;28;87748;-44
2024/03/07 06:15:03;;;;;;;2.67;1.20;;;;;;;;;;4986454;28;88124;-43
2024/03/07 06:17:28;;;;;;;6.37;3.20;;;;;;;;;;4988837;28;86874;-45
2024/03/07 06:19:53;;;;;;;5.27;2.00;;;;;;;;;;4986469;28;86911;-44
2024/03/07 06:22:19;;;;;;;2.90;1.63;;;;;;;;;;4986611;28;86995;-44
2024/03/07 06:24:44;;;;;;;6.23;1.63;;;;;;;;;;4984895;28;86918;-44
2024/03/07 06:27:16;;;;;;;5.93;1.83;;;;;;;;;;4984383;28;89161;-45
2024/03/07 06:29:41;;;;;;;4.80;1.95;;;;;;;;;;4984376;28;86833;-43
2024/03/07 06:32:06;;;;;;;4.30;1.70;;;;;;;;;;4986849;28;86849;-44
2024/03/07 06:34:32;;;;;;;3.00;1.58;;;;;;;;;;4986577;28;87695;-45
2024/03/07 06:36:58;;;;;;;3.58;1.30;;;;;;;;;;4986730;28;88093;-45
2024/03/07 06:39:23;;;;;;;8.93;1.97;;;;;;;;;;4989856;28;86730;-45
2024/03/07 06:41:48;;;;;;;3.23;1.67;;;;;;;;;;4986934;28;87469;-44
2024/03/07 06:44:14;;;;;;;4.30;1.50;;;;;;;;;;4986048;28;87031;-46
2024/03/07 06:46:39;;;;;;;3.42;1.70;;;;;;;;;;4986948;28;87070;-43
2024/03/07 06:49:10;;;;;;;2.93;1.20;;;;;;;;;;4987137;28;87565;-43
2024/03/07 06:51:35;;;;;;;4.15;2.15;;;;;;;;;;4987253;28;87028;-44
2024/03/07 06:54:00;;;;;;;4.50;1.90;;;;;;;;;;4986498;28;86655;-42
2024/03/07 06:56:26;;;;;;;11.13;2.10;;;;;;;;;;4986344;28;87247;-47
2024/03/07 06:58:51;;;;;;;6.30;1.83;;;;;;;;;;4986557;28;87187;-45
2024/03/07 07:01:18;;;;;;;5.40;1.77;;;;;;;;;;4988883;28;87810;-42
2024/03/07 07:03:43;;;;;;;3.88;1.73;;;;;;;;;;4987009;28;86605;-45
2024/03/07 07:06:10;;;;;;;7.10;1.83;;;;;;;;;;4984846;28;87189;-45
2024/03/07 07:08:35;;;;;;;4.00;1.40;;;;;;;;;;4986018;28;86926;-46
2024/03/07 07:11:03;;;;;;;6.15;1.90;;;;;;;;;;4985325;28;87239;-44
2024/03/07 07:13:28;;;;;;;3.42;2.05;;;;;;;;;;4986117;28;86805;-46
2024/03/07 07:15:54;;;;;;;5.07;2.03;;;;;;;;;;4985506;28;86769;-46
2024/03/07 07:18:19;;;;;;;5.73;1.60;;;;;;;;;;4986743;28;87015;-44
2024/03/07 07:20:44;;;;;;;4.73;2.03;;;;;;;;;;4986993;28;88163;-44
2024/03/07 07:23:09;;;;;;;7.20;1.73;;;;;;;;;;4985843;28;86765;-44
2024/03/07 07:25:35;;;;;;;4.67;1.97;;;;;;;;;;4986381;28;87919;-43
2024/03/07 07:28:01;;;;;;;4.78;2.25;;;;;;;;;;4984059;28;90072;-42
2024/03/07 07:30:29;;;;;;;4.90;1.95;;;;;;;;;;4986606;28;86780;-44
2024/03/07 07:32:54;;;;;;;6.10;2.00;;;;;;;;;;4986642;28;86972;-43
2024/03/07 07:35:20;;;;;;;7.57;2.27;;;;;;;;;;4985550;28;87345;-43
2024/03/07 07:37:46;;;;;;;4.70;2.38;;;;;;;;;;4986100;28;86936;-43
2024/03/07 07:40:14;;;;;;;6.13;2.72;;;;;;;;;;4985619;28;87128;-46
2024/03/07 07:42:41;;;;;;;6.22;2.40;;;;;;;;;;4988769;28;86794;-44
2024/03/07 07:45:10;;;;;;;10.20;2.63;;;;;;;;;;4985814;28;86780;-43
2024/03/07 07:47:37;;;;;;;8.85;3.13;;;;;;;;;;4985610;28;87508;-43
2024/03/07 07:50:03;;;;;;;6.20;2.67;;;;;;;;;;4985511;28;87890;-43
2024/03/07 07:52:31;;;;;;;8.17;2.20;;;;;;;;;;4987365;28;87011;-45
2024/03/07 07:54:57;;;;;;;7.37;1.97;;;;;;;;;;4986282;28;86870;-47
2024/03/07 07:57:22;;;;;;;6.83;2.20;;;;;;;;;;4985509;28;86999;-45
2024/03/07 07:59:49;;;;;;;4.53;2.20;;;;;;;;;;4984215;28;88829;-45
2024/03/07 08:02:14;;;;;;;6.78;2.47;;;;;;;;;;4985519;28;87559;-43
2024/03/07 08:04:39;;;;;;;4.93;2.53;;;;;;;;;;4988131;28;86850;-44
2024/03/07 08:07:05;;;;;;;4.83;2.10;;;;;;;;;;4986624;28;86226;-43
2024/03/07 08:09:30;;;;;;;3.10;1.60;;;;;;;;;;4985989;28;87146;-43
2024/03/07 08:11:55;;;;;;;5.10;2.37;;;;;;;;;;4984423;28;87273;-44
2024/03/07 08:14:21;;;;;;;2.97;1.83;;;;;;;;;;4983621;28;88006;-44
2024/03/07 08:16:51;;;;;;;11.15;2.67;;;;;;;;;;4984467;28;86772;-43
2024/03/07 08:19:16;;;;;;;7.50;2.00;;;;;;;;;;4985380;28;87141;-44
2024/03/07 08:21:41;;;;;;;10.32;2.88;;;;;;;;;;4983943;28;86863;-45
2024/03/07 08:24:10;;;;;;;7.00;2.30;;;;;;;;;;4984548;28;86772;-44
2024/03/07 08:26:36;;;;;;;3.92;1.88;;;;;;;;;;4987978;28;87357;-43
2024/03/07 08:29:02;;;;;;;9.15;1.73;;;;;;;;;;4986116;28;86831;-44
2024/03/07 08:31:28;;;;;;;5.10;2.53;;;;;;;;;;4986484;28;87199;-44
2024/03/07 08:33:53;;;;;;;3.80;2.03;;;;;;;;;;4986607;28;86741;-44
2024/03/07 08:36:19;;;;;;;7.87;2.43;;;;;;;;;;4986698;28;86906;-45
2024/03/07 08:38:46;;;;;;;4.47;2.10;;;;;;;;;;4984968;28;87839;-45
2024/03/07 08:41:11;;;;;;;5.40;2.70;;;;;;;;;;4987149;28;87307;-43
2024/03/07 08:43:37;;;;;;;2.05;1.48;;;;;;;;;;4989971;28;87254;-43
2024/03/07 08:46:02;;;;;;;8.13;2.42;;;;;;;;;;4989406;28;88416;-44
2024/03/07 08:48:28;;;;;;;3.70;2.08;;;;;;;;;;4992598;28;87431;-43
2024/03/07 08:50:53;;;;;;;6.05;2.17;;;;;;;;;;4989484;28;86860;-46
2024/03/07 08:53:18;;;;;;;4.33;2.47;;;;;;;;;;4989338;28;88023;-44
2024/03/07 08:55:44;;;;;;;4.23;2.00;;;;;;;;;;4989706;28;86409;-43
2024/03/07 08:58:09;;;;;;;4.70;1.83;;;;;;;;;;4988829;28;86858;-44
2024/03/07 09:00:34;;;;;;;6.53;2.83;;;;;;;;;;4987073;28;86851;-44
2024/03/07 09:03:03;;;;;;;6.27;2.00;;;;;;;;;;4987013;28;87750;-44
2024/03/07 09:05:28;;;;;;;9.85;2.30;;;;;;;;;;4986423;28;88304;-43
2024/03/07 09:07:54;;;;;;;5.27;2.07;;;;;;;;;;4988312;28;87880;-43
2024/03/07 09:10:19;;;;;;;3.57;2.03;;;;;;;;;;4991039;28;86851;-43
2024/03/07 09:12:45;;;;;;;8.90;2.23;;;;;;;;;;4987719;28;86901;-46
2024/03/07 09:15:11;;;;;;;5.50;1.83;;;;;;;;;;4987238;28;86898;-44
2024/03/07 09:17:37;;;;;;;4.95;1.80;;;;;;;;;;4987934;28;86864;-45
2024/03/07 09:20:05;;;;;;;4.20;1.90;;;;;;;;;;4987552;28;86209;-43
2024/03/07 09:22:30;;;;;;;3.22;1.88;;;;;;;;;;4986937;28;86754;-43
2024/03/07 09:24:56;;;;;;;3.67;1.85;;;;;;;;;;4987456;28;86896;-43
2024/03/07 09:27:21;;;;;;;5.10;2.40;;;;;;;;;;4986759;28;87634;-43
2024/03/07 09:29:50;;;;;;;3.40;1.73;;;;;;;;;;4990731;28;86765;-46
2024/03/07 09:32:15;;;;;;;2.97;1.63;;;;;;;;;;4986674;28;88524;-43
2024/03/07 09:34:40;;;;;;;3.85;1.73;;;;;;;;;;4987410;28;87241;-43
2024/03/07 09:37:08;;;;;;;4.13;2.00;;;;;;;;;;4987510;28;87071;-43
2024/03/07 09:39:37;;;;;;;4.78;1.88;;;;;;;;;;4985670;28;87755;-43
2024/03/07 09:42:02;;;;;;;6.30;1.70;;;;;;;;;;4986158;28;86844;-43
2024/03/07 09:44:28;;;;;;;4.63;2.20;;;;;;;;;;4987220;28;86141;-46
2024/03/07 09:46:58;;;;;;;2.70;1.70;;;;;;;;;;4984670;28;107291;-44
2024/03/07 09:49:24;;;;;;;4.55;2.10;;;;;;;;;;4985218;28;86802;-44
2024/03/07 09:51:54;;;;;;;5.05;1.85;;;;;;;;;;4987579;28;87780;-46
2024/03/07 09:54:19;;;;;;;3.55;2.30;;;;;;;;;;4986170;28;86625;-43
2024/03/07 09:56:44;;;;;;;4.22;1.73;;;;;;;;;;4985549;28;86847;-43
2024/03/07 09:59:12;;;;;;;3.83;1.60;;;;;;;;;;4985992;28;86927;-44
2024/03/07 10:01:37;;;;;;;3.80;2.63;;;;;;;;;;4985940;28;87166;-45
2024/03/07 10:04:14;;;;;;;3.73;1.87;;;;;;;;;;4986476;28;86816;-44
2024/03/07 10:06:39;;;;;;;3.97;1.70;;;;;;;;;;4985056;28;88696;-44
2024/03/07 10:09:06;;;;;;;6.30;2.63;;;;;;;;;;4983918;28;87842;-46
2024/03/07 10:11:31;;;;;;;9.68;2.25;;;;;;;;;;4985272;28;86863;-47
2024/03/07 10:13:56;;;;;;;8.03;2.03;;;;;;;;;;4987412;28;87530;-44
2024/03/07 10:16:22;;;;;;;6.27;2.27;;;;;;;;;;4984083;28;87748;-45
2024/03/07 10:18:50;;;;;;;5.40;1.77;;;;;;;;;;4984557;28;86770;-46
2024/03/07 10:21:17;;;;;;;3.67;2.13;;;;;;;;;;4985159;28;86916;-43
2024/03/07 10:23:42;;;;;;;4.35;2.00;;;;;;;;;;4984871;28;87257;-44
2024/03/07 10:26:07;;;;;;;13.90;2.63;;;;;;;;;;4984768;28;90447;-43
2024/03/07 10:28:33;;;;;;;3.77;2.17;;;;;;;;;;4986522;28;87151;-44
2024/03/07 10:30:58;;;;;;;4.30;1.60;;;;;;;;;;4985854;28;86779;-44
2024/03/07 10:33:27;;;;;;;3.13;1.73;;;;;;;;;;4985982;28;86609;-44
2024/03/07 10:35:53;;;;;;;2.90;2.03;;;;;;;;;;4989050;28;86999;-45
2024/03/07 10:38:18;;;;;;;7.67;2.40;;;;;;;;;;4986198;28;87664;-43
2024/03/07 10:40:46;;;;;;;7.00;1.93;;;;;;;;;;4985532;28;87816;-43
2024/03/07 10:43:14;;;;;;;8.07;2.22;;;;;;;;;;4984954;28;88570;-43
2024/03/07 10:45:46;;;;;;;4.00;2.22;;;;;;;;;;4984975;28;88149;-43
2024/03/07 10:48:12;;;;;;;4.88;2.33;;;;;;;;;;4984745;28;86867;-43
2024/03/07 10:50:39;;;;;;;3.58;2.20;;;;;;;;;;4983799;28;87317;-43
2024/03/07 10:53:10;;;;;;;7.50;2.38;;;;;;;;;;4984801;28;87605;-44
2024/03/07 10:55:44;;;;;;;4.68;2.17;;;;;;;;;;4985392;28;88040;-42
2024/03/07 10:58:14;;;;;;;8.47;2.47;;;;;;;;;;4989416;28;86089;-45
2024/03/07 11:00:45;;;;;;;4.77;1.73;;;;;;;;;;4985908;28;87115;-42
2024/03/07 11:03:11;;;;;;;6.25;2.13;;;;;;;;;;4984548;28;87259;-43
2024/03/07 11:05:37;;;;;;;4.53;2.03;;;;;;;;;;4983673;28;91659;-45
2024/03/07 11:08:07;;;;;;;5.10;2.40;;;;;;;;;;4985451;28;86927;-44
2024/03/07 11:10:33;;;;;;;5.10;2.67;;;;;;;;;;4985050;28;86799;-45
2024/03/07 11:13:00;;;;;;;5.43;1.90;;;;;;;;;;4984735;28;86754;-43
2024/03/07 11:15:27;;;;;;;4.75;1.90;;;;;;;;;;4984733;28;86891;-43
2024/03/07 11:17:54;;;;;;;6.70;2.00;;;;;;;;;;4986251;28;86833;-45
2024/03/07 11:20:20;;;;;;;5.20;2.28;;;;;;;;;;4984916;28;86870;-43
2024/03/07 11:22:46;;;;;;;7.70;2.22;;;;;;;;;;4984790;28;86275;-44
2024/03/07 11:25:11;;;;;;;9.50;2.13;;;;;;;;;;4984170;28;87673;-43
2024/03/07 11:27:38;;;;;;;5.20;2.20;;;;;;;;;;4984264;28;88599;-42
2024/03/07 11:30:06;;;;;;;8.75;2.10;;;;;;;;;;4984278;28;87724;-42
2024/03/07 11:32:34;;;;;;;7.38;1.77;;;;;;;;;;4983190;28;87727;-45
2024/03/07 11:35:00;;;;;;;4.90;1.95;;;;;;;;;;4983589;28;87314;-44
2024/03/07 11:37:43;;;;;;;3.95;1.83;;;;;;;;;;4985078;28;88635;-45
2024/03/07 11:40:17;;;;;;;3.60;2.00;;;;;;;;;;4988328;28;87475;-44
2024/03/07 11:42:44;;;;;;;3.60;1.80;;;;;;;;;;4984891;28;86647;-62
2024/03/07 11:45:09;;;;;;;4.57;2.60;;;;;;;;;;4985028;28;87083;-44
2024/03/07 11:47:37;;;;;;;5.37;2.57;;;;;;;;;;4985997;28;86897;-44
2024/03/07 11:50:08;;;;;;;5.13;2.78;;;;;;;;;;4983571;28;86793;-44
2024/03/07 11:52:33;;;;;;;4.68;2.67;;;;;;;;;;4984001;28;86767;-44
2024/03/07 11:55:03;;;;;;;5.57;3.60;;;;;;;;;;4983458;28;87799;-44
2024/03/07 11:57:32;;;;;;;7.88;3.90;;;;;;;;;;4983455;28;88133;-45
2024/03/07 12:00:00;;;;;;;5.32;3.95;;;;;;;;;;4982819;28;87470;-44
2024/03/07 12:02:26;;;;;;;6.40;3.83;;;;;;;;;;4987201;28;87112;-46
2024/03/07 12:04:51;;;;;;;12.73;6.13;;;;;;;;;;4984725;28;87014;-45
2024/03/07 12:07:22;;;;;;;6.43;4.30;;;;;;;;;;4984562;28;86847;-44
2024/03/07 12:09:50;;;;;;;8.90;3.97;;;;;;;;;;4984307;28;87456;-44
2024/03/07 12:12:17;;;;;;;10.38;5.93;;;;;;;;;;4983980;28;86161;-45
2024/03/07 12:14:42;;;;;;;16.77;8.67;;;;;;;;;;4985471;28;86880;-46
2024/03/07 12:17:07;;;;;;;15.30;10.10;;;;;;;;;;4988649;28;87166;-47
2024/03/07 12:19:33;;;;;;;14.97;8.00;;;;;;;;;;4985680;28;88583;-46
2024/03/07 12:22:02;;;;;;;15.40;7.20;;;;;;;;;;4986838;28;86883;-44
2024/03/07 12:24:27;;;;;;;11.60;6.73;;;;;;;;;;4988251;28;87562;-45
2024/03/07 12:26:54;;;;;;;14.60;6.43;;;;;;;;;;4986441;28;86949;-46
2024/03/07 12:29:25;;;;;;;10.57;5.53;;;;;;;;;;4986814;28;87021;-45
2024/03/07 12:31:51;;;;;;;9.57;4.97;;;;;;;;;;4985696;28;88821;-46
2024/03/07 12:34:16;;;;;;;6.72;5.03;;;;;;;;;;4985491;28;86932;-45
2024/03/07 12:36:48;;;;;;;10.05;4.57;;;;;;;;;;4986798;28;87108;-46
2024/03/07 12:39:26;;;;;;;11.55;4.30;;;;;;;;;;4984381;28;88767;-46
2024/03/07 12:41:57;;;;;;;7.53;4.07;;;;;;;;;;4986425;28;86958;-45
2024/03/07 12:44:23;;;;;;;9.43;4.07;;;;;;;;;;4986256;28;87976;-43
2024/03/07 12:46:53;;;;;;;9.67;4.40;;;;;;;;;;4988264;28;87051;-47
2024/03/07 12:49:19;;;;;;;7.40;3.80;;;;;;;;;;4985836;28;86670;-45
2024/03/07 12:51:44;;;;;;;8.60;3.40;;;;;;;;;;4985476;28;87675;-44
2024/03/07 12:54:09;;;;;;;9.17;3.80;;;;;;;;;;4986013;28;86811;-45
2024/03/07 12:56:37;;;;;;;6.20;3.53;;;;;;;;;;4987071;28;86781;-45
2024/03/07 12:59:02;;;;;;;6.05;2.92;;;;;;;;;;4986083;28;87494;-45
2024/03/07 13:01:27;;;;;;;5.67;2.70;;;;;;;;;;4986748;28;86170;-45
2024/03/07 13:03:53;;;;;;;4.83;2.40;;;;;;;;;;4985987;28;87073;-44
2024/03/07 13:06:28;;;;;;;4.73;3.23;;;;;;;;;;4986200;28;86740;-46
2024/03/07 13:08:54;;;;;;;3.55;2.55;;;;;;;;;;4989503;28;87895;-45
2024/03/07 13:11:20;;;;;;;3.93;2.30;;;;;;;;;;4985753;28;86858;-45
2024/03/07 13:13:45;;;;;;;5.78;2.75;;;;;;;;;;4986207;28;86869;-45
2024/03/07 13:16:11;;;;;;;6.10;2.60;;;;;;;;;;4986030;28;87347;-46
2024/03/07 13:18:37;;;;;;;4.32;2.25;;;;;;;;;;4986046;28;87762;-49
2024/03/07 13:21:03;;;;;;;5.60;2.58;;;;;;;;;;4986177;28;86850;-45
2024/03/07 13:23:28;;;;;;;3.20;2.17;;;;;;;;;;4986744;28;87008;-46
2024/03/07 13:25:54;;;;;;;7.50;2.70;;;;;;;;;;4986256;28;86893;-45
2024/03/07 13:28:24;;;;;;;4.47;2.33;;;;;;;;;;4988465;28;88112;-45
2024/03/07 13:30:49;;;;;;;8.88;2.47;;;;;;;;;;4986095;28;88616;-44
2024/03/07 13:33:15;;;;;;;3.90;2.30;;;;;;;;;;4985540;28;87778;-42
2024/03/07 13:35:41;;;;;;;4.95;1.88;;;;;;;;;;4986549;28;86956;-49
2024/03/07 13:38:06;;;;;;;3.05;2.38;;;;;;;;;;4985774;28;86864;-44
2024/03/07 13:40:34;;;;;;;3.15;2.38;;;;;;;;;;4985548;28;87481;-44
2024/03/07 13:43:00;;;;;;;5.20;2.27;;;;;;;;;;4984593;28;87407;-44
2024/03/07 13:45:27;;;;;;;4.20;2.10;;;;;;;;;;4985708;28;87279;-44
2024/03/07 13:47:54;;;;;;;4.95;2.38;;;;;;;;;;4985714;28;87072;-44
2024/03/07 13:50:22;;;;;;;4.82;1.65;;;;;;;;;;4988988;28;86133;-44
2024/03/07 13:53:04;;;;;;;5.53;2.30;;;;;;;;;;4986663;28;87253;-46
2024/03/07 13:55:48;;;;;;;5.80;2.08;;;;;;;;;;4985874;28;87054;-47
2024/03/07 13:58:18;;;;;;;2.83;1.70;;;;;;;;;;4984159;28;88650;-45
2024/03/07 14:01:04;;;;;;;4.93;1.97;;;;;;;;;;4986137;28;87113;-47
2024/03/07 14:03:39;;;;;;;2.67;1.73;;;;;;;;;;4986993;28;86729;-47
2024/03/07 14:06:11;;;;;;;3.63;1.97;;;;;;;;;;4987530;28;86758;-44
2024/03/07 14:08:55;;;;;;;7.67;2.37;;;;;;;;;;4988072;28;86824;-44
2024/03/07 14:11:23;;;;;;;3.35;1.92;;;;;;;;;;4987442;28;87188;-44
2024/03/07 14:14:07;;;;;;;5.68;1.63;;;;;;;;;;4990344;28;86778;-47
2024/03/07 14:16:51;;;;;;;5.47;2.13;;;;;;;;;;4987236;28;86096;-45
2024/03/07 14:19:34;;;;;;;8.40;2.10;;;;;;;;;;4986108;28;87223;-45
2024/03/07 14:22:11;;;;;;;10.48;1.92;;;;;;;;;;4984717;28;86734;-46
2024/03/07 14:24:42;;;;;;;3.72;1.55;;;;;;;;;;4983866;28;87830;-46
2024/03/07 14:27:26;;;;;;;4.25;1.63;;;;;;;;;;4984229;28;86727;-44
2024/03/07 14:30:00;;;;;;;2.33;1.48;;;;;;;;;;4984543;28;87031;-46
2024/03/07 14:32:26;;;;;;;3.33;1.80;;;;;;;;;;4985343;28;86951;-46
2024/03/07 14:34:57;;;;;;;4.90;2.00;;;;;;;;;;4982668;28;90163;-46
2024/03/07 14:37:29;;;;;;;3.47;1.60;;;;;;;;;;4986784;28;87001;-42
2024/03/07 14:40:09;;;;;;;3.15;2.15;;;;;;;;;;4984945;28;86743;-45